Time;durP1;ratioP1;P1;durP2;ratioP2;P2;SDS_P1;SDS_P2;PMS_P1;PMS_P2;Temp;Humidity;BMP_temperature;BMP_pressure;BME280_temperature;BME280_humidity;BME280_pressure;Samples;Min_cycle;Max_cycle;Signal;HPM_P1;HPM_P2
2023/07/04 00:01:17;;;;;;;5.00;2.75;;;17.70;70.70;;;19.65;51.21;97469.91;5033170;28;20049;-56
2023/07/04 00:03:50;;;;;;;4.07;2.60;;;17.60;71.30;;;19.56;51.45;97465.88;5033460;28;20076;-55
2023/07/04 00:06:18;;;;;;;4.43;2.45;;;17.50;72.00;;;19.51;51.41;97471.09;5015908;28;20045;-51
2023/07/04 00:08:48;;;;;;;3.22;2.22;;;17.50;72.40;;;19.45;51.60;97464.72;5033060;28;20078;-52
2023/07/04 00:11:21;;;;;;;3.90;2.58;;;17.40;73.10;;;19.43;51.81;97466.81;5033021;28;20046;-55
2023/07/04 00:13:50;;;;;;;5.18;2.70;;;17.40;73.10;;;19.41;51.91;97462.69;5024246;28;20049;-56
2023/07/04 00:16:19;;;;;;;3.88;2.60;;;17.40;73.60;;;19.40;52.25;97463.72;5032986;28;20501;-55
2023/07/04 00:18:47;;;;;;;5.15;2.47;;;17.40;73.70;;;19.36;52.15;97463.34;5032772;28;20041;-54
2023/07/04 00:21:15;;;;;;;4.68;2.63;;;17.40;74.00;;;19.34;52.39;97468.16;5032908;28;20524;-54
2023/07/04 00:23:48;;;;;;;3.50;2.50;;;17.40;74.10;;;19.36;52.50;97468.75;5031413;28;20548;-54
2023/07/04 00:26:19;;;;;;;4.78;2.20;;;17.50;75.00;;;19.36;52.61;97466.06;5031835;28;20041;-55
2023/07/04 00:28:48;;;;;;;7.05;2.75;;;17.50;74.80;;;19.32;52.95;97470.25;5032691;28;20421;-56
2023/07/04 00:31:20;;;;;;;4.05;2.75;;;17.50;75.10;;;19.36;53.00;97473.31;5031220;28;20046;-55
2023/07/04 00:33:47;;;;;;;4.03;2.90;;;17.50;75.40;;;19.32;53.24;97464.03;5031698;28;20045;-56
2023/07/04 00:36:17;;;;;;;2.60;2.00;;;17.50;75.70;;;19.33;53.21;97462.97;5031671;28;20045;-52
2023/07/04 00:38:56;;;;;;;3.72;2.67;;;17.50;75.80;;;19.32;53.33;97464.84;5032530;28;20493;-54
2023/07/04 00:41:27;;;;;;;4.30;2.30;;;17.50;76.00;;;19.30;53.40;97466.94;5031298;28;20049;-56
2023/07/04 00:43:59;;;;;;;3.75;2.45;;;17.50;76.30;;;19.22;53.89;97465.34;5022508;28;20049;-55
2023/07/04 00:47:04;;;;;;;4.20;2.00;;;17.40;77.20;;;19.17;54.04;97467.06;5030643;28;20045;-53
2023/07/04 00:49:43;;;;;;;3.33;2.20;;;17.30;77.90;;;19.17;54.03;97473.25;5032131;28;20053;-54
2023/07/04 00:52:17;;;;;;;7.97;2.63;;;17.30;78.40;;;19.20;53.86;97467.44;5031722;28;20057;-54
2023/07/04 00:54:52;;;;;;;4.68;2.40;;;17.30;78.30;;;19.21;54.22;97463.72;5031409;28;20455;-56
2023/07/04 00:57:27;;;;;;;3.35;2.15;;;17.40;78.40;;;19.30;54.14;97471.53;5030924;28;20505;-56
2023/07/04 00:59:58;;;;;;;3.25;2.42;;;17.50;77.70;;;19.36;53.97;97466.06;5031416;28;20045;-54
2023/07/04 01:02:31;;;;;;;3.10;2.35;;;17.70;77.00;;;19.42;53.83;97470.56;5030966;28;20428;-45
2023/07/04 01:05:03;;;;;;;2.72;1.98;;;17.80;76.40;;;19.44;53.97;97475.75;5023944;28;20041;-44
2023/07/04 01:07:41;;;;;;;2.85;1.85;;;17.80;76.30;;;19.43;53.96;97469.53;5031228;28;20049;-46
2023/07/04 01:10:40;;;;;;;4.35;1.90;;;17.70;76.30;;;19.46;53.73;97471.78;5030898;28;20064;-43
2023/07/04 01:13:33;;;;;;;2.97;2.17;;;17.80;76.30;;;19.50;53.70;97482.13;5025389;28;20049;-45
2023/07/04 01:16:11;;;;;;;4.53;2.85;;;17.80;76.20;;;19.52;53.72;97480.84;5024814;28;20046;-44
2023/07/04 01:18:41;;;;;;;3.80;2.25;;;17.80;76.10;;;19.53;53.82;97477.13;5031648;28;20420;-43
2023/07/04 01:21:12;;;;;;;4.20;2.78;;;17.70;76.30;;;19.55;53.74;97480.41;5030724;28;20513;-42
2023/07/04 01:23:48;;;;;;;3.00;1.90;;;17.80;76.20;;;19.56;53.81;97479.38;5030849;28;20521;-43
2023/07/04 01:26:34;;;;;;;2.63;1.70;;;17.80;76.30;;;19.57;53.82;97477.50;5031371;28;20048;-43
2023/07/04 01:29:07;;;;;;;2.65;2.30;;;17.80;76.70;;;19.58;54.01;97485.38;5008412;28;20042;-45
2023/07/04 01:31:36;;;;;;;3.13;1.80;;;17.80;76.70;;;19.60;53.75;97493.22;5030859;28;20050;-44
2023/07/04 01:34:05;;;;;;;3.03;2.15;;;17.90;76.50;;;19.59;54.06;97483.50;5030708;28;20412;-42
2023/07/04 01:36:37;;;;;;;3.42;2.08;;;17.90;76.60;;;19.60;54.15;97491.38;5030382;28;20046;-42
2023/07/04 01:39:07;;;;;;;4.78;2.30;;;17.90;76.80;;;19.56;54.03;97487.47;5029528;28;20042;-43
2023/07/04 01:41:35;;;;;;;3.05;2.03;;;17.80;76.80;;;19.59;54.36;97491.59;5031545;28;20056;-44
2023/07/04 01:44:06;;;;;;;3.33;2.05;;;17.90;76.90;;;19.60;54.18;97495.94;5031586;28;20048;-43
2023/07/04 01:46:35;;;;;;;4.35;2.20;;;17.90;76.70;;;19.56;54.50;97492.88;5029884;28;20038;-46
2023/07/04 01:49:04;;;;;;;2.63;1.90;;;17.90;76.90;;;19.56;54.51;97487.47;5030178;28;20052;-42
2023/07/04 01:51:39;;;;;;;2.47;1.95;;;17.90;77.00;;;19.63;54.37;97484.69;5031347;28;20045;-44
2023/07/04 01:54:09;;;;;;;2.95;2.00;;;18.00;77.10;;;19.63;54.69;97492.81;5031450;28;20049;-42
2023/07/04 01:56:38;;;;;;;2.78;2.08;;;17.90;77.30;;;19.62;54.47;97486.59;5030349;28;20076;-46
2023/07/04 01:59:07;;;;;;;3.30;1.88;;;17.90;77.50;;;19.60;54.69;97488.69;5029856;28;20519;-43
2023/07/04 02:01:38;;;;;;;2.58;1.95;;;17.90;77.90;;;19.62;54.60;97491.16;5031531;28;20037;-42
2023/07/04 02:04:06;;;;;;;3.78;2.20;;;17.90;78.20;;;19.61;54.82;97482.22;5031216;28;20052;-43
2023/07/04 02:06:33;;;;;;;3.50;2.22;;;17.80;78.40;;;19.55;55.04;97479.59;5030264;28;20046;-44
2023/07/04 02:09:01;;;;;;;3.47;2.10;;;17.70;79.40;;;19.51;55.13;97479.22;5021682;28;20049;-44
2023/07/04 02:11:29;;;;;;;2.95;2.30;;;17.70;79.80;;;19.54;55.32;97486.88;5031200;28;20060;-46
2023/07/04 02:13:59;;;;;;;2.38;1.88;;;17.70;79.60;;;19.52;55.41;97483.53;5030080;28;20056;-43
2023/07/04 02:16:27;;;;;;;4.80;2.17;;;17.70;80.20;;;19.44;55.59;97473.88;5031425;28;20052;-44
2023/07/04 02:18:55;;;;;;;4.38;2.22;;;17.70;80.70;;;19.44;55.61;97473.88;5029422;28;20049;-45
2023/07/04 02:21:26;;;;;;;3.47;2.20;;;17.70;80.90;;;19.46;55.40;97470.94;5035161;28;20051;-42
2023/07/04 02:23:54;;;;;;;3.80;2.33;;;17.70;80.90;;;19.45;55.43;97478.22;5034789;28;20045;-43
2023/07/04 02:26:22;;;;;;;4.47;2.47;;;17.60;80.60;;;19.44;55.42;97475.75;5033864;28;20056;-46
2023/07/04 02:28:50;;;;;;;3.45;2.60;;;17.60;80.80;;;19.36;55.67;97476.03;5033754;28;20053;-43
2023/07/04 02:31:18;;;;;;;6.70;2.40;;;17.50;81.80;;;19.32;55.72;97472.13;5033570;28;20049;-46
2023/07/04 02:33:46;;;;;;;3.25;1.70;;;17.40;82.20;;;19.32;55.51;97472.13;5035073;28;20068;-47
2023/07/04 02:36:14;;;;;;;4.60;2.40;;;17.40;82.10;;;19.28;55.61;97474.44;5035423;28;20054;-44
2023/07/04 02:38:41;;;;;;;3.58;2.38;;;17.40;82.80;;;19.21;55.93;97474.50;5033324;28;20041;-43
2023/07/04 02:41:10;;;;;;;4.18;2.70;;;17.20;84.20;;;19.18;55.97;97471.41;5033851;28;20042;-45
2023/07/04 02:43:40;;;;;;;3.20;2.20;;;17.20;84.40;;;19.10;56.01;97477.09;5033530;28;20053;-45
2023/07/04 02:46:08;;;;;;;3.67;2.20;;;17.10;85.50;;;19.06;56.19;97482.09;5034177;28;20042;-42
2023/07/04 02:48:40;;;;;;;4.18;2.42;;;17.10;85.70;;;19.07;56.20;97481.03;5033425;28;20053;-44
2023/07/04 02:51:09;;;;;;;4.10;2.38;;;17.10;86.00;;;19.10;56.31;97479.78;5033449;28;20049;-47
2023/07/04 02:53:37;;;;;;;3.85;2.22;;;17.20;85.70;;;19.06;56.20;97482.09;5034087;28;20428;-45
2023/07/04 02:56:04;;;;;;;3.03;2.00;;;17.20;85.70;;;19.05;56.26;97480.44;5025831;28;20528;-45
2023/07/04 02:58:33;;;;;;;4.40;2.30;;;17.20;85.90;;;19.06;56.37;97484.78;5033069;28;20057;-46
2023/07/04 03:01:04;;;;;;;3.17;2.42;;;17.20;86.20;;;19.04;56.52;97486.88;5029515;28;20060;-41
2023/07/04 03:03:32;;;;;;;3.03;2.10;;;17.10;86.30;;;19.07;56.40;97494.53;5029346;28;20354;-42
2023/07/04 03:06:04;;;;;;;3.90;2.03;;;17.20;85.90;;;19.11;56.51;97495.72;5029877;28;20546;-42
2023/07/04 03:08:34;;;;;;;4.38;2.15;;;17.30;85.70;;;19.11;56.62;97500.31;5045368;28;20567;-41
2023/07/04 03:11:02;;;;;;;3.55;1.85;;;17.30;86.10;;;19.06;56.84;97495.59;5033143;28;20537;-43
2023/07/04 03:13:34;;;;;;;3.15;2.13;;;17.20;86.30;;;19.03;56.93;97502.22;5033464;28;20045;-44
2023/07/04 03:16:03;;;;;;;4.90;2.75;;;17.20;86.80;;;19.04;56.99;97501.19;5032614;28;20045;-42
2023/07/04 03:18:33;;;;;;;4.55;2.53;;;17.20;87.00;;;19.04;57.04;97497.69;5033004;28;20046;-45
2023/07/04 03:21:01;;;;;;;3.03;2.33;;;17.20;87.00;;;19.01;57.01;97500.81;5033962;28;20042;-43
2023/07/04 03:23:28;;;;;;;4.35;2.53;;;17.20;87.70;;;18.98;57.16;97501.22;5032795;28;20056;-41
2023/07/04 03:25:56;;;;;;;2.92;1.90;;;17.20;87.80;;;19.02;57.19;97505.97;5016743;28;20064;-46
2023/07/04 03:28:24;;;;;;;5.03;2.47;;;17.30;87.60;;;19.08;56.98;97509.69;5033972;28;20045;-43
2023/07/04 03:30:53;;;;;;;2.72;2.33;;;17.40;86.90;;;19.12;57.01;97504.69;5031437;28;20052;-42
2023/07/04 03:33:21;;;;;;;4.40;2.90;;;17.40;86.60;;;19.13;56.79;97503.63;5033477;28;20053;-44
2023/07/04 03:35:50;;;;;;;2.55;2.08;;;17.40;86.30;;;19.14;56.91;97510.69;5032701;28;20056;-47
2023/07/04 03:38:28;;;;;;;3.22;2.20;;;17.40;86.20;;;19.16;56.80;97508.59;5032389;28;20421;-43
2023/07/04 03:40:56;;;;;;;3.22;2.35;;;17.40;86.10;;;19.20;56.69;97502.53;5033420;28;20042;-41
2023/07/04 03:43:25;;;;;;;5.03;2.40;;;17.50;85.60;;;19.23;56.71;97503.94;5033058;28;20050;-46
2023/07/04 03:45:52;;;;;;;3.75;2.63;;;17.50;85.50;;;19.22;56.86;97513.91;5028782;28;20049;-44
2023/07/04 03:48:22;;;;;;;3.72;2.28;;;17.50;85.80;;;19.20;56.73;97507.09;5032359;28;20060;-42
2023/07/04 03:50:51;;;;;;;2.88;2.15;;;17.50;86.00;;;19.22;56.85;97507.72;5033430;28;20057;-41
2023/07/04 03:53:19;;;;;;;3.00;2.08;;;17.50;86.00;;;19.22;56.77;97508.53;5033501;28;20049;-43
2023/07/04 03:55:49;;;;;;;4.68;2.42;;;17.50;85.80;;;19.21;57.01;97517.69;5031925;28;20060;-44
2023/07/04 03:58:22;;;;;;;3.17;2.20;;;17.50;85.80;;;19.20;56.98;97513.31;5031673;28;20433;-45
2023/07/04 04:00:51;;;;;;;2.78;2.05;;;17.50;86.10;;;19.22;57.07;97510.41;5031337;28;20061;-44
2023/07/04 04:03:19;;;;;;;3.10;2.45;;;17.50;85.90;;;19.23;56.88;97506.63;5033726;28;20042;-43
2023/07/04 04:05:47;;;;;;;3.47;2.03;;;17.50;85.80;;;19.25;57.06;97507.25;5033534;28;20053;-46
2023/07/04 04:08:14;;;;;;;2.55;1.95;;;17.60;85.50;;;19.32;56.84;97507.22;5033400;28;20057;-42
2023/07/04 04:10:42;;;;;;;3.47;2.35;;;17.70;85.00;;;19.31;56.74;97509.09;5032780;28;20042;-43
2023/07/04 04:13:10;;;;;;;3.67;2.25;;;17.70;85.00;;;19.32;56.94;97507.22;5025078;28;20049;-46
2023/07/04 04:15:38;;;;;;;2.22;1.90;;;17.70;85.30;;;19.33;56.85;97504.28;5033585;28;20064;-44
2023/07/04 04:18:06;;;;;;;4.40;2.50;;;17.70;85.00;;;19.33;56.80;97507.00;5032978;28;22291;-42
2023/07/04 04:20:34;;;;;;;5.03;2.65;;;17.70;85.80;;;19.33;56.83;97509.69;5032725;28;20068;-45
2023/07/04 04:23:01;;;;;;;3.63;2.10;;;17.70;85.70;;;19.37;56.69;97510.91;5033109;28;20489;-43
2023/07/04 04:25:32;;;;;;;3.83;2.08;;;17.80;84.70;;;19.42;56.66;97505.66;5033082;28;20045;-43
2023/07/04 04:28:00;;;;;;;2.17;1.73;;;17.80;84.50;;;19.43;56.55;97506.50;5032247;28;20057;-42
2023/07/04 04:30:28;;;;;;;3.05;2.33;;;17.80;84.20;;;19.39;56.76;97506.09;5032708;28;20419;-43
2023/07/04 04:32:56;;;;;;;4.50;2.13;;;17.80;84.40;;;19.42;56.61;97502.13;5031654;28;20053;-42
2023/07/04 04:35:25;;;;;;;3.78;3.05;;;17.80;84.40;;;19.43;56.67;97511.91;5033064;28;20068;-56
2023/07/04 04:37:53;;;;;;;2.60;2.08;;;17.80;84.30;;;19.48;56.46;97509.34;5032520;28;20558;-57
2023/07/04 04:40:21;;;;;;;2.50;1.98;;;17.80;84.00;;;19.46;56.73;97514.13;5032245;28;20033;-56
2023/07/04 04:42:53;;;;;;;3.45;2.03;;;17.80;84.00;;;19.47;56.38;97516.63;5031652;28;20044;-55
2023/07/04 04:45:23;;;;;;;3.60;2.25;;;17.80;83.90;;;19.46;56.54;97509.59;5032854;28;20041;-56
2023/07/04 04:47:53;;;;;;;1.98;1.75;;;17.80;83.60;;;19.52;56.40;97510.53;5015186;28;20037;-57
2023/07/04 04:50:30;;;;;;;4.15;1.85;;;17.90;83.10;;;19.57;56.13;97528.78;5032105;28;20049;-56
2023/07/04 04:52:59;;;;;;;3.13;1.83;;;18.00;82.60;;;19.57;56.16;97532.31;5030540;28;20428;-56
2023/07/04 04:55:28;;;;;;;3.63;1.80;;;18.00;82.10;;;19.57;56.05;97528.78;5032582;28;20048;-57
2023/07/04 04:57:55;;;;;;;3.90;1.95;;;18.10;82.00;;;19.59;55.86;97530.22;5032202;28;20045;-55
2023/07/04 05:00:24;;;;;;;3.08;1.85;;;18.00;81.90;;;19.60;55.96;97531.88;5031849;28;20045;-56
2023/07/04 05:02:51;;;;;;;3.45;2.25;;;18.00;81.90;;;19.61;55.84;97536.22;5032329;28;20040;-56
2023/07/04 05:05:19;;;;;;;3.30;1.80;;;18.00;81.70;;;19.61;55.63;97536.22;5032182;28;20041;-57
2023/07/04 05:07:49;;;;;;;3.53;2.20;;;18.00;81.70;;;19.61;55.74;97535.41;5030500;28;20519;-55
2023/07/04 05:10:17;;;;;;;3.20;1.88;;;17.90;81.70;;;19.60;55.69;97537.28;5023701;28;20044;-57
2023/07/04 05:12:44;;;;;;;3.20;1.90;;;17.90;81.70;;;19.60;55.79;97540.00;5031737;28;20037;-57
2023/07/04 05:15:12;;;;;;;1.80;1.50;;;17.90;81.80;;;19.57;55.93;97545.81;5031882;28;20069;-57
2023/07/04 05:17:39;;;;;;;3.55;2.30;;;17.90;82.20;;;19.59;55.78;97549.13;5031851;28;20496;-57
2023/07/04 05:20:09;;;;;;;3.00;2.30;;;17.90;82.40;;;19.58;56.07;97552.88;5031525;28;20045;-57
2023/07/04 05:22:36;;;;;;;3.58;2.13;;;17.90;82.60;;;19.58;56.08;97543.94;5031999;28;20046;-56
2023/07/04 05:25:06;;;;;;;3.35;2.10;;;17.90;82.90;;;19.61;56.14;97548.91;5031835;28;20051;-57
2023/07/04 05:27:33;;;;;;;5.70;2.30;;;18.00;82.60;;;19.62;56.22;97548.69;5031617;28;20041;-57
2023/07/04 05:30:01;;;;;;;4.32;1.90;;;18.00;82.30;;;19.67;56.41;97556.94;5031652;28;20053;-57
2023/07/04 05:32:30;;;;;;;2.80;2.10;;;18.10;82.30;;;19.70;56.04;97555.69;5031459;28;20049;-57
2023/07/04 05:34:58;;;;;;;3.47;2.35;;;18.20;81.90;;;19.74;56.14;97562.31;5031446;28;20493;-57
2023/07/04 05:37:26;;;;;;;3.42;2.10;;;18.30;81.70;;;19.77;56.27;97556.47;5031649;28;20504;-57
2023/07/04 05:39:53;;;;;;;2.17;1.63;;;18.30;81.70;;;19.77;56.02;97561.88;5031492;28;20034;-57
2023/07/04 05:42:21;;;;;;;3.72;2.03;;;18.30;81.30;;;19.83;56.34;97555.59;5032263;28;20038;-43
2023/07/04 05:44:49;;;;;;;3.65;1.85;;;18.40;81.00;;;19.87;55.86;97558.66;5031552;28;20049;-47
2023/07/04 05:47:16;;;;;;;3.13;1.98;;;18.50;80.80;;;19.91;55.98;97553.63;5031025;28;20037;-45
2023/07/04 05:49:44;;;;;;;4.32;1.90;;;18.40;80.30;;;19.95;55.79;97558.38;5031566;28;20412;-43
2023/07/04 05:52:11;;;;;;;3.15;2.20;;;18.50;79.70;;;20.00;55.47;97561.22;5030710;28;20541;-45
2023/07/04 05:54:39;;;;;;;5.47;2.90;;;18.60;78.80;;;20.04;55.31;97559.72;5031143;28;20045;-43
2023/07/04 05:57:08;;;;;;;2.40;1.88;;;18.60;78.40;;;20.13;55.33;97557.56;5031201;28;20049;-46
2023/07/04 05:59:35;;;;;;;4.20;1.70;;;18.70;78.10;;;20.19;54.95;97556.66;5029966;28;20045;-44
2023/07/04 06:02:03;;;;;;;2.80;1.90;;;18.80;77.70;;;20.24;54.87;97566.81;5031325;28;20041;-46
2023/07/04 06:04:31;;;;;;;4.30;2.15;;;18.80;77.00;;;20.27;54.64;97561.75;5031204;28;20034;-44
2023/07/04 06:06:59;;;;;;;4.40;3.17;;;18.90;76.40;;;20.34;54.32;97566.28;5031141;28;20052;-47
2023/07/04 06:09:26;;;;;;;4.63;2.40;;;18.90;76.10;;;20.36;54.05;97566.88;5030935;28;20064;-43
2023/07/04 06:11:54;;;;;;;3.63;2.45;;;18.90;74.60;;;20.39;53.04;97571.81;5031379;28;20052;-48
2023/07/04 06:14:27;;;;;;;4.75;2.20;;;19.00;72.80;;;20.44;53.09;97561.16;5031391;28;20040;-46
2023/07/04 06:16:56;;;;;;;4.45;2.03;;;19.00;72.30;;;20.49;52.53;97564.03;5031286;28;20265;-46
2023/07/04 06:19:25;;;;;;;3.97;2.25;;;19.10;71.50;;;20.50;50.78;97562.97;5022958;28;20034;-47
2023/07/04 06:21:52;;;;;;;4.22;2.67;;;19.10;67.10;;;20.56;50.55;97566.66;5046571;28;20041;-47
2023/07/04 06:24:20;;;;;;;8.18;4.00;;;19.20;66.50;;;20.62;50.25;97563.06;5030803;28;20037;-44
2023/07/04 06:26:49;;;;;;;3.15;2.33;;;19.20;66.20;;;20.66;50.68;97558.84;5031180;28;20037;-44
2023/07/04 06:29:16;;;;;;;7.13;2.47;;;19.30;67.10;;;20.73;50.70;97559.59;5030474;28;20041;-45
2023/07/04 06:31:47;;;;;;;7.22;2.83;;;19.40;67.20;;;20.76;49.86;97563.69;5046621;28;20041;-43
2023/07/04 06:34:15;;;;;;;5.82;2.65;;;19.40;65.10;;;20.78;48.67;97573.25;5028751;28;20052;-42
2023/07/04 06:36:48;;;;;;;6.78;2.60;;;19.50;62.60;;;20.83;48.89;97570.69;5030327;28;20046;-44
2023/07/04 06:39:16;;;;;;;6.10;2.65;;;19.70;62.90;;;20.80;48.58;97568.44;5029229;28;20052;-44
2023/07/04 06:41:44;;;;;;;4.20;2.80;;;19.60;60.60;;;20.75;48.34;97570.19;5030866;28;20101;-45
2023/07/04 06:44:11;;;;;;;5.03;2.55;;;19.60;61.30;;;20.85;48.27;97573.97;5026768;28;20054;-46
2023/07/04 06:46:39;;;;;;;6.93;3.15;;;19.70;61.90;;;20.93;48.32;97575.53;5026984;28;20042;-46
2023/07/04 06:49:06;;;;;;;5.82;3.15;;;19.70;59.30;;;20.95;48.07;97578.84;5030285;28;20037;-42
2023/07/04 06:51:34;;;;;;;5.40;2.50;;;19.70;60.90;;;20.98;47.98;97578.41;5030539;28;20052;-43
2023/07/04 06:54:02;;;;;;;5.50;2.67;;;19.80;61.20;;;21.09;48.09;97587.59;5031001;28;20060;-44
2023/07/04 06:56:30;;;;;;;6.78;2.63;;;19.90;60.60;;;21.18;47.57;97590.81;5030896;28;20048;-42
2023/07/04 06:58:58;;;;;;;6.88;3.22;;;20.00;60.40;;;21.19;47.62;97590.59;5030620;28;20393;-42
2023/07/04 07:01:27;;;;;;;5.93;3.28;;;20.00;60.10;;;21.16;46.38;97587.50;5030333;28;20041;-45
2023/07/04 07:03:59;;;;;;;4.28;2.97;;;20.00;58.80;;;21.20;47.12;97592.22;5031185;28;20037;-43
2023/07/04 07:06:27;;;;;;;5.78;2.90;;;20.00;59.20;;;21.28;47.41;97591.06;5025148;28;20052;-44
2023/07/04 07:08:55;;;;;;;7.00;3.47;;;20.10;59.80;;;21.32;46.59;97591.44;5034136;28;20056;-41
2023/07/04 07:11:24;;;;;;;5.88;3.10;;;20.10;59.30;;;21.35;47.03;97597.22;5034069;28;20057;-42
2023/07/04 07:13:52;;;;;;;4.75;2.33;;;20.10;58.50;;;21.26;46.32;97614.84;5033217;28;20425;-44
2023/07/04 07:16:23;;;;;;;5.75;2.72;;;20.00;58.70;;;21.25;46.87;97607.78;5033863;28;20052;-48
2023/07/04 07:18:54;;;;;;;7.22;3.03;;;19.90;59.00;;;21.34;47.10;97611.81;5033793;28;20046;-44
2023/07/04 07:21:25;;;;;;;4.85;3.22;;;20.00;59.70;;;21.41;46.50;97604.41;5033773;28;20045;-41
2023/07/04 07:23:54;;;;;;;6.88;3.03;;;20.10;59.30;;;21.44;46.81;97608.56;5033845;28;20547;-41
2023/07/04 07:26:26;;;;;;;7.85;2.97;;;20.10;59.20;;;21.53;46.57;97595.53;5033957;28;20493;-42
2023/07/04 07:28:56;;;;;;;5.32;3.05;;;20.20;58.90;;;21.53;46.26;97596.34;5034469;28;20037;-43
2023/07/04 07:31:26;;;;;;;7.15;3.50;;;20.20;59.10;;;21.56;46.03;97600.50;5033561;28;20049;-40
2023/07/04 07:34:00;;;;;;;3.33;2.53;;;20.20;59.00;;;21.59;46.48;97602.72;5032897;28;20416;-41
2023/07/04 07:36:32;;;;;;;7.05;3.25;;;20.20;59.20;;;21.60;46.16;97598.97;5033905;28;20504;-43
2023/07/04 07:39:03;;;;;;;5.00;3.45;;;20.20;59.40;;;21.61;46.44;97604.13;5033482;28;20269;-44
2023/07/04 07:41:36;;;;;;;5.32;2.22;;;20.20;59.30;;;21.67;46.46;97601.56;5025508;28;20417;-43
2023/07/04 07:44:05;;;;;;;5.90;3.00;;;20.30;59.40;;;21.64;46.23;97610.97;5032829;28;20048;-44
2023/07/04 07:46:33;;;;;;;4.75;2.67;;;20.30;59.10;;;21.67;46.09;97598.84;5032421;28;20041;-41
2023/07/04 07:49:01;;;;;;;6.20;3.25;;;20.30;59.00;;;21.68;46.13;97603.22;5033301;28;20041;-41
2023/07/04 07:51:29;;;;;;;7.40;3.13;;;20.30;59.30;;;21.73;46.59;97606.03;5032691;28;20516;-44
2023/07/04 07:53:58;;;;;;;6.00;2.63;;;20.40;59.40;;;21.70;46.78;97609.22;5033693;28;20052;-44
2023/07/04 07:56:32;;;;;;;5.40;2.65;;;20.30;59.70;;;21.77;46.98;97602.63;5032182;28;20060;-42
2023/07/04 07:59:00;;;;;;;6.75;3.55;;;20.50;59.50;;;21.86;46.51;97605.81;5033679;28;20045;-44
2023/07/04 08:01:33;;;;;;;4.43;2.63;;;20.50;59.30;;;21.92;46.63;97604.88;5032818;28;20060;-41
2023/07/04 08:04:03;;;;;;;;;;;20.60;59.20;;;21.95;46.52;97600.88;5033944;28;20048;-48
2023/07/04 08:06:39;;;;;;;4.78;2.72;;;20.60;59.20;;;21.99;46.51;97593.94;5033098;28;19925;-41
2023/07/04 08:09:11;;;;;;;5.18;2.58;;;20.60;59.60;;;22.00;46.79;97596.41;5033006;28;20519;-41
2023/07/04 08:11:41;;;;;;;5.05;2.75;;;20.70;59.50;;;22.03;47.23;97593.22;5025826;28;20539;-41
2023/07/04 08:14:09;;;;;;;4.20;3.22;;;20.70;59.90;;;22.09;46.51;97594.16;5048374;28;20045;-46
2023/07/04 08:16:52;;;;;;;4.07;2.85;;;20.70;59.30;;;22.10;46.56;97594.97;5032907;28;20045;-44
2023/07/04 08:19:26;;;;;;;4.20;3.13;;;20.80;58.80;;;22.11;46.43;97602.88;5032740;28;20045;-43
2023/07/04 08:21:54;;;;;;;5.68;3.20;;;20.80;58.60;;;22.11;45.77;97602.06;5033002;28;20042;-43
2023/07/04 08:24:22;;;;;;;5.55;3.55;;;20.70;58.70;;;22.11;45.75;97596.63;5033507;28;20061;-43
2023/07/04 08:26:54;;;;;;;4.97;2.97;;;20.70;58.40;;;22.09;45.83;97588.72;5032795;28;20049;-40
2023/07/04 08:29:22;;;;;;;9.80;3.55;;;20.60;58.30;;;22.13;45.83;97584.47;5031237;28;20042;-42
2023/07/04 08:31:49;;;;;;;7.38;3.00;;;20.70;58.30;;;22.20;45.76;97596.03;5031384;28;20477;-41
2023/07/04 08:34:17;;;;;;;4.32;3.00;;;20.70;58.10;;;22.28;45.65;97599.50;5032493;28;20049;-43
2023/07/04 08:36:45;;;;;;;4.63;2.90;;;20.80;58.20;;;22.34;45.62;97599.34;5031382;28;20050;-41
2023/07/04 08:39:12;;;;;;;5.72;2.80;;;20.90;57.90;;;22.43;45.03;97588.97;5032193;28;20053;-44
2023/07/04 08:42:03;;;;;;;5.50;3.40;;;21.00;57.50;;;22.47;45.38;97590.13;5033339;28;20045;-43
2023/07/04 08:44:48;;;;;;;8.30;3.67;;;21.20;56.10;;;22.55;44.96;97591.66;5032919;28;20053;-44
2023/07/04 08:47:25;;;;;;;4.93;2.88;;;21.30;57.10;;;22.61;45.10;97590.69;5031312;28;20496;-44
2023/07/04 08:50:11;;;;;;;5.63;3.25;;;21.30;56.20;;;22.65;44.92;97593.75;5032285;28;20041;-42
2023/07/04 08:52:52;;;;;;;4.80;3.58;;;21.50;56.00;;;22.74;44.85;97584.16;5022987;28;20047;-43
2023/07/04 08:55:22;;;;;;;5.57;3.22;;;21.60;55.50;;;22.81;44.61;97582.13;5015211;28;20045;-42
2023/07/04 08:57:53;;;;;;;5.95;3.72;;;21.70;55.30;;;22.85;43.84;97590.63;5030640;28;20080;-45
2023/07/04 09:00:42;;;;;;;8.50;3.65;;;21.60;55.00;;;22.91;44.20;97592.34;5031986;28;20425;-44
2023/07/04 09:03:39;;;;;;;7.65;3.50;;;21.80;54.00;;;22.98;44.06;97587.63;5030793;28;20050;-46
2023/07/04 09:06:33;;;;;;;7.40;3.33;;;21.80;54.30;;;22.98;43.69;97593.06;5027931;28;20534;-43
2023/07/04 09:09:16;;;;;;;6.38;3.40;;;21.70;53.90;;;23.00;44.01;97591.72;5025743;28;20050;-44
2023/07/04 09:11:48;;;;;;;7.15;3.42;;;21.70;55.20;;;22.95;43.47;97585.38;5023608;28;20280;-45
2023/07/04 09:14:25;;;;;;;5.25;3.70;;;21.60;54.50;;;22.87;43.71;97585.78;5030768;28;20045;-42
2023/07/04 09:16:56;;;;;;;6.00;3.75;;;21.50;55.10;;;22.85;43.79;97583.28;5032000;28;20041;-43
2023/07/04 09:19:23;;;;;;;7.32;3.80;;;21.50;55.20;;;22.90;43.74;97579.88;5030056;28;20045;-43
2023/07/04 09:21:52;;;;;;;7.50;4.72;;;21.60;54.90;;;22.93;43.45;97585.63;5031735;28;20045;-43
2023/07/04 09:24:19;;;;;;;6.88;3.78;;;21.60;54.60;;;22.99;43.32;97591.97;5031382;28;20041;-42
2023/07/04 09:26:55;;;;;;;6.05;3.72;;;21.70;54.50;;;23.06;43.12;97581.00;5031780;28;20041;-43
2023/07/04 09:29:24;;;;;;;7.38;3.53;;;21.80;54.10;;;23.14;43.25;97580.63;5029614;28;20046;-44
2023/07/04 09:31:56;;;;;;;8.07;4.22;;;21.90;54.20;;;23.21;43.56;97580.47;5030362;28;20049;-45
2023/07/04 09:34:41;;;;;;;8.70;3.72;;;22.10;53.80;;;23.27;43.30;97576.78;5031821;28;20528;-41
2023/07/04 09:37:13;;;;;;;7.72;3.95;;;22.20;52.70;;;23.28;42.93;97575.69;5030706;28;20045;-42
2023/07/04 09:40:04;;;;;;;6.63;4.00;;;22.20;53.10;;;23.27;42.97;97582.22;5029707;28;20048;-42
2023/07/04 09:42:31;;;;;;;6.50;4.13;;;22.20;52.60;;;23.14;40.19;97592.28;5030685;28;20045;-44
2023/07/04 09:45:22;;;;;;;7.57;4.65;;;21.90;48.50;;;23.00;40.40;97582.78;5031206;28;20057;-43
2023/07/04 09:47:50;;;;;;;8.43;5.00;;;21.80;48.30;;;22.91;39.65;97581.50;5019141;28;20037;-42
2023/07/04 09:50:21;;;;;;;8.65;5.13;;;21.70;48.00;;;23.00;39.83;97574.63;5029831;28;20047;-42
2023/07/04 09:53:02;;;;;;;8.77;5.40;;;21.80;46.80;;;23.04;39.49;97577.72;5031412;28;20061;-42
2023/07/04 09:55:31;;;;;;;8.60;5.55;;;21.90;45.90;;;22.92;37.83;97580.44;5031045;28;20046;-47
2023/07/04 09:58:22;;;;;;;11.23;5.32;;;21.90;44.90;;;22.89;37.68;97579.03;5031103;28;20048;-45
2023/07/04 10:01:08;;;;;;;8.52;5.55;;;21.90;43.50;;;23.04;38.68;97573.09;5023851;28;20041;-47
2023/07/04 10:03:38;;;;;;;7.38;5.85;;;22.00;44.80;;;23.06;37.32;97572.88;5029804;28;20045;-46
2023/07/04 10:06:10;;;;;;;6.47;5.25;;;22.10;44.40;;;23.17;37.95;97564.66;5029831;28;20041;-46
2023/07/04 10:08:55;;;;;;;7.63;5.13;;;22.20;44.40;;;23.27;37.63;97566.72;5030432;28;20049;-45
2023/07/04 10:11:39;;;;;;;9.52;6.00;;;22.30;42.40;;;23.21;37.52;97564.19;5029853;28;20516;-42
2023/07/04 10:14:12;;;;;;;12.00;5.80;;;22.30;44.10;;;23.31;38.36;97556.22;5030204;28;20512;-43
2023/07/04 10:16:52;;;;;;;9.02;6.18;;;22.30;46.30;;;23.40;38.56;97552.03;5030663;28;20042;-42
2023/07/04 10:19:22;;;;;;;7.63;4.88;;;22.40;45.90;;;23.41;38.05;97552.84;5030624;28;20512;-42
2023/07/04 10:21:53;;;;;;;8.20;5.32;;;22.40;45.20;;;23.27;38.02;97541.47;5023382;28;20041;-44
2023/07/04 10:24:24;;;;;;;8.98;5.53;;;22.40;45.00;;;23.42;37.44;97557.19;5030996;28;20072;-44
2023/07/04 10:26:59;;;;;;;;;;;22.50;43.60;;;23.38;37.40;97554.97;5024517;28;20038;-44
2023/07/04 10:29:37;;;;;;;11.52;6.60;;;22.40;43.20;;;23.27;36.72;97546.91;5029413;28;19929;-42
2023/07/04 10:32:13;;;;;;;11.98;5.85;;;22.30;42.90;;;23.32;36.99;97546.97;5029838;28;20512;-44
2023/07/04 10:34:46;;;;;;;9.48;5.78;;;22.40;42.80;;;23.33;37.04;97533.16;5029744;28;20049;-48
2023/07/04 10:37:27;;;;;;;6.85;5.22;;;22.50;43.30;;;23.52;36.96;97539.19;5029410;28;20524;-44